Time;durP1;ratioP1;P1;durP2;ratioP2;P2;SDS_P1;SDS_P2;PMS_P1;PMS_P2;Temp;Humidity;BMP_temperature;BMP_pressure;BME280_temperature;BME280_humidity;BME280_pressure;Samples;Min_cycle;Max_cycle;Signal;HPM_P1;HPM_P2
2021/07/24 00:01:18;;;;;;;19.77;13.90;;;15.40;93.70;;;;;;5012339;28;20053;-49
2021/07/24 00:03:44;;;;;;;20.98;14.55;;;15.40;93.50;;;;;;5016115;28;20101;-51
2021/07/24 00:06:09;;;;;;;21.27;14.68;;;15.40;93.50;;;;;;5012723;28;20046;-48
2021/07/24 00:08:35;;;;;;;22.02;14.65;;;15.40;93.40;;;;;;5006417;28;20055;-49
2021/07/24 00:11:03;;;;;;;24.38;15.13;;;15.30;93.60;;;;;;5016160;28;20049;-50
2021/07/24 00:13:29;;;;;;;20.88;14.95;;;15.40;93.50;;;;;;5021622;28;20049;-50
2021/07/24 00:15:54;;;;;;;24.02;14.63;;;15.30;93.70;;;;;;5011558;28;20042;-50
2021/07/24 00:18:20;;;;;;;20.20;14.70;;;15.30;93.40;;;;;;5015221;28;20491;-50
2021/07/24 00:20:46;;;;;;;26.75;15.35;;;15.30;93.70;;;;;;5015812;28;20042;-49
2021/07/24 00:23:12;;;;;;;21.15;14.45;;;15.40;93.40;;;;;;5015622;28;20557;-47
2021/07/24 00:25:40;;;;;;;25.60;15.30;;;15.30;93.40;;;;;;5002322;28;20045;-52
2021/07/24 00:28:06;;;;;;;22.65;14.95;;;15.30;93.50;;;;;;5017301;28;20710;-49
2021/07/24 00:30:35;;;;;;;24.50;14.90;;;15.20;93.50;;;;;;5015869;28;20065;-47
2021/07/24 00:33:00;;;;;;;23.48;14.60;;;15.30;93.40;;;;;;5004784;28;20499;-50
2021/07/24 00:35:26;;;;;;;23.02;14.38;;;15.20;93.60;;;;;;5004501;28;20038;-48
2021/07/24 00:37:52;;;;;;;21.58;13.75;;;15.20;93.50;;;;;;5015009;28;20499;-49
2021/07/24 00:40:24;;;;;;;21.63;14.57;;;15.20;93.60;;;;;;4998883;28;20064;-47
2021/07/24 00:42:51;;;;;;;23.73;15.27;;;15.30;93.50;;;;;;5013822;28;20038;-50
2021/07/24 00:45:20;;;;;;;23.35;14.43;;;15.30;93.30;;;;;;5015758;28;20098;-52
2021/07/24 00:47:50;;;;;;;22.50;14.63;;;15.20;93.50;;;;;;5010672;28;20038;-52
2021/07/24 00:50:16;;;;;;;20.38;13.80;;;15.10;93.60;;;;;;5014632;28;20445;-51
2021/07/24 00:52:43;;;;;;;24.02;15.40;;;15.10;93.70;;;;;;5000453;28;20045;-52
2021/07/24 00:55:11;;;;;;;21.98;14.52;;;15.10;93.70;;;;;;5013524;28;20046;-50
2021/07/24 00:57:40;;;;;;;22.35;14.88;;;15.20;93.60;;;;;;5011329;28;20046;-51
2021/07/24 01:00:07;;;;;;;22.77;14.48;;;15.10;93.60;;;;;;5007563;28;20044;-47
2021/07/24 01:02:33;;;;;;;23.67;14.80;;;15.10;93.80;;;;;;5000486;28;20047;-47
2021/07/24 01:05:01;;;;;;;22.23;14.50;;;15.00;93.60;;;;;;5012739;28;20095;-49
2021/07/24 01:07:27;;;;;;;23.08;14.57;;;14.90;93.70;;;;;;5011884;28;20038;-49
2021/07/24 01:09:53;;;;;;;20.98;14.13;;;14.90;93.80;;;;;;5008125;28;20065;-47
2021/07/24 01:12:19;;;;;;;20.42;13.68;;;14.90;94.00;;;;;;5011258;28;20050;-47
2021/07/24 01:14:45;;;;;;;23.13;14.23;;;14.90;94.10;;;;;;5011452;28;20541;-47
2021/07/24 01:17:11;;;;;;;21.48;14.35;;;14.90;93.90;;;;;;5009907;28;20431;-47
2021/07/24 01:19:36;;;;;;;24.25;15.57;;;14.80;93.90;;;;;;5013581;28;20046;-51
2021/07/24 01:22:02;;;;;;;26.48;15.70;;;14.80;94.30;;;;;;5009583;28;20504;-50
2021/07/24 01:24:28;;;;;;;22.88;15.45;;;14.90;93.90;;;;;;5013781;28;20034;-51
2021/07/24 01:26:53;;;;;;;26.38;15.82;;;14.80;94.20;;;;;;5016046;28;20049;-50
2021/07/24 01:29:22;;;;;;;25.58;16.02;;;14.70;94.10;;;;;;5014955;28;20041;-49
2021/07/24 01:31:48;;;;;;;23.77;14.65;;;14.70;94.20;;;;;;5015161;28;20092;-48
2021/07/24 01:34:15;;;;;;;26.13;15.20;;;14.80;94.20;;;;;;5013010;28;20045;-49
2021/07/24 01:36:41;;;;;;;25.77;16.15;;;14.70;94.20;;;;;;5014202;28;20111;-48
2021/07/24 01:39:09;;;;;;;22.73;15.73;;;14.60;94.10;;;;;;5007822;28;20495;-50
2021/07/24 01:41:35;;;;;;;23.90;15.18;;;14.60;94.30;;;;;;5006780;28;20050;-48
2021/07/24 01:44:01;;;;;;;22.85;14.85;;;14.60;94.50;;;;;;4996165;28;20487;-48
2021/07/24 01:46:27;;;;;;;22.48;15.20;;;14.60;94.40;;;;;;5013360;28;20038;-48
2021/07/24 01:49:10;;;;;;;21.85;14.95;;;14.60;94.50;;;;;;5014639;28;20057;-51
2021/07/24 01:54:42;;;;;;;23.60;15.00;;;14.50;94.70;;;;;;5015399;28;20088;-48
2021/07/24 01:57:09;;;;;;;23.83;15.43;;;14.40;94.50;;;;;;5014355;28;20041;-50
2021/07/24 01:59:42;;;;;;;22.42;14.93;;;14.40;94.70;;;;;;4999104;28;20392;-49
2021/07/24 02:02:15;;;;;;;23.85;15.40;;;14.40;94.70;;;;;;5014708;28;20044;-47
2021/07/24 02:04:49;;;;;;;23.52;15.10;;;14.40;94.80;;;;;;5011183;28;20056;-48
2021/07/24 02:07:16;;;;;;;23.08;15.30;;;14.30;94.90;;;;;;5013750;28;20050;-48
2021/07/24 02:09:42;;;;;;;29.05;15.48;;;14.40;94.80;;;;;;5012590;28;20050;-48
2021/07/24 02:12:09;;;;;;;28.02;15.82;;;14.40;94.70;;;;;;5011821;28;20514;-48
2021/07/24 02:14:38;;;;;;;24.42;15.52;;;14.30;94.80;;;;;;5009245;28;20061;-51
2021/07/24 02:17:04;;;;;;;23.52;15.27;;;14.40;94.70;;;;;;5007479;28;20034;-50
2021/07/24 02:19:34;;;;;;;24.38;13.88;;;14.30;94.80;;;;;;5009948;28;20046;-47
2021/07/24 02:22:00;;;;;;;23.77;14.45;;;14.30;94.80;;;;;;5011913;28;20101;-48
2021/07/24 02:24:26;;;;;;;21.48;14.07;;;14.40;94.60;;;;;;5012197;28;20143;-48
2021/07/24 02:26:52;;;;;;;22.17;14.05;;;14.40;94.80;;;;;;5010190;28;20606;-48
2021/07/24 02:29:17;;;;;;;23.50;15.13;;;14.30;94.70;;;;;;5014425;28;20069;-51
2021/07/24 02:31:43;;;;;;;23.92;14.38;;;14.30;94.80;;;;;;5024477;28;20065;-49
2021/07/24 02:34:11;;;;;;;25.13;15.43;;;14.30;95.10;;;;;;5012505;28;20406;-49
2021/07/24 02:36:36;;;;;;;22.38;14.88;;;14.40;94.60;;;;;;5012248;28;20112;-50
2021/07/24 02:39:02;;;;;;;25.88;15.02;;;14.30;94.80;;;;;;5010954;28;20125;-50
2021/07/24 02:41:30;;;;;;;23.23;14.25;;;14.30;94.80;;;;;;5013441;28;20487;-50
2021/07/24 02:43:55;;;;;;;23.92;14.65;;;14.20;94.80;;;;;;5011729;28;20104;-50
2021/07/24 02:46:21;;;;;;;25.92;14.73;;;14.20;94.90;;;;;;5012789;28;20065;-48
2021/07/24 02:48:47;;;;;;;22.45;14.95;;;14.30;94.80;;;;;;5009207;28;20038;-50
2021/07/24 02:51:14;;;;;;;24.55;15.00;;;14.20;94.90;;;;;;5011454;28;20065;-48
2021/07/24 02:53:41;;;;;;;28.00;15.25;;;14.10;95.00;;;;;;5012279;28;20050;-51
2021/07/24 02:56:06;;;;;;;24.20;14.63;;;14.20;95.30;;;;;;5020874;28;20073;-50
2021/07/24 02:58:32;;;;;;;23.45;15.02;;;14.20;95.20;;;;;;5011236;28;20495;-48
2021/07/24 03:01:04;;;;;;;24.83;14.45;;;14.20;95.00;;;;;;5012477;28;20038;-52
2021/07/24 03:03:30;;;;;;;24.97;15.03;;;14.20;95.20;;;;;;5009255;28;20065;-51
2021/07/24 03:05:56;;;;;;;23.33;14.18;;;14.10;95.20;;;;;;4995478;28;20074;-49
2021/07/24 03:08:22;;;;;;;24.35;13.77;;;14.10;95.40;;;;;;5006327;28;20155;-49
2021/07/24 03:10:47;;;;;;;24.58;14.77;;;14.10;95.20;;;;;;5013472;28;20045;-48
2021/07/24 03:13:13;;;;;;;24.00;13.75;;;14.20;95.00;;;;;;5000933;28;20120;-47
2021/07/24 03:15:39;;;;;;;26.30;14.93;;;14.10;95.30;;;;;;5008095;28;20173;-50
2021/07/24 03:18:04;;;;;;;27.52;15.25;;;14.10;95.00;;;;;;5014400;28;20049;-50
2021/07/24 03:20:30;;;;;;;23.63;14.55;;;14.00;95.40;;;;;;5014021;28;20088;-49
2021/07/24 03:22:59;;;;;;;29.20;15.32;;;14.10;95.40;;;;;;5016025;28;20045;-47
2021/07/24 03:25:26;;;;;;;26.90;14.50;;;14.10;95.30;;;;;;5014707;28;20038;-50
2021/07/24 03:27:55;;;;;;;25.60;15.13;;;14.00;95.20;;;;;;5017420;28;20030;-47
2021/07/24 03:30:21;;;;;;;25.08;14.80;;;14.00;95.40;;;;;;4999828;28;20054;-49
2021/07/24 03:32:47;;;;;;;23.83;14.57;;;14.10;95.40;;;;;;5015228;28;20041;-51
2021/07/24 03:35:13;;;;;;;27.70;15.38;;;14.00;95.30;;;;;;5005202;28;20049;-47
2021/07/24 03:37:39;;;;;;;26.25;14.77;;;13.90;95.70;;;;;;4998109;28;20072;-49
2021/07/24 03:40:06;;;;;;;25.33;14.35;;;13.90;95.50;;;;;;5015724;28;20111;-47
2021/07/24 03:42:32;;;;;;;27.55;15.75;;;13.90;95.50;;;;;;5014262;28;20132;-47
2021/07/24 03:44:57;;;;;;;26.95;15.00;;;13.90;95.70;;;;;;5012636;28;20172;-49
2021/07/24 03:47:23;;;;;;;23.30;14.23;;;13.90;95.80;;;;;;5007253;28;20093;-49
2021/07/24 03:49:52;;;;;;;25.08;14.57;;;13.90;95.70;;;;;;5010806;28;20168;-49
2021/07/24 03:52:18;;;;;;;25.10;12.98;;;13.90;95.60;;;;;;4998453;28;20500;-48
2021/07/24 03:54:44;;;;;;;27.10;15.20;;;14.00;95.70;;;;;;5015393;28;20560;-50
2021/07/24 03:57:12;;;;;;;27.02;14.75;;;14.00;95.50;;;;;;4989455;28;20064;-48
2021/07/24 03:59:38;;;;;;;26.05;13.93;;;13.90;95.50;;;;;;5012611;28;20047;-49
2021/07/24 04:02:07;;;;;;;26.20;15.27;;;13.90;95.70;;;;;;5012755;28;20042;-49
2021/07/24 04:04:35;;;;;;;26.67;14.77;;;13.90;95.50;;;;;;5013401;28;20423;-48
2021/07/24 04:07:05;;;;;;;26.95;15.18;;;13.90;95.70;;;;;;5002069;28;20370;-47
2021/07/24 04:09:33;;;;;;;24.60;14.02;;;13.90;95.60;;;;;;5014415;28;20050;-47
2021/07/24 04:11:59;;;;;;;25.77;14.10;;;13.90;95.60;;;;;;5013973;28;20415;-49
2021/07/24 04:14:25;;;;;;;26.95;15.35;;;14.00;95.60;;;;;;5013030;28;20492;-49
2021/07/24 04:16:52;;;;;;;25.77;13.45;;;14.00;95.40;;;;;;5000377;28;20105;-48
2021/07/24 04:19:17;;;;;;;28.85;15.15;;;13.90;95.70;;;;;;5014286;28;20081;-48
2021/07/24 04:21:43;;;;;;;23.98;13.88;;;14.00;95.50;;;;;;5015032;28;20418;-48
2021/07/24 04:24:09;;;;;;;28.58;15.38;;;14.00;95.50;;;;;;5014084;28;20037;-48
2021/07/24 04:26:34;;;;;;;28.88;14.45;;;14.00;95.70;;;;;;5013606;28;20175;-49
2021/07/24 04:29:06;;;;;;;23.55;14.40;;;14.00;95.50;;;;;;5017895;28;20056;-47
2021/07/24 04:31:31;;;;;;;28.73;16.55;;;14.00;95.50;;;;;;5011049;28;20038;-47
2021/07/24 04:33:57;;;;;;;25.30;14.77;;;14.10;95.50;;;;;;5010662;28;20030;-47
2021/07/24 04:36:23;;;;;;;25.38;14.93;;;14.10;95.50;;;;;;5000314;28;20046;-49
2021/07/24 04:38:49;;;;;;;24.17;14.07;;;14.20;95.20;;;;;;4996668;28;20049;-48
2021/07/24 04:41:18;;;;;;;25.83;15.23;;;14.20;95.00;;;;;;5014388;28;20042;-51
2021/07/24 04:43:44;;;;;;;26.33;14.43;;;14.20;95.00;;;;;;5013809;28;20144;-47
2021/07/24 04:46:10;;;;;;;26.95;15.15;;;14.20;95.20;;;;;;5006506;28;20049;-47
2021/07/24 04:48:36;;;;;;;29.23;14.48;;;14.20;95.20;;;;;;5004005;28;20034;-49
2021/07/24 04:51:02;;;;;;;23.63;14.85;;;14.20;95.10;;;;;;5006787;28;20041;-50
2021/07/24 04:53:28;;;;;;;25.58;15.43;;;14.20;95.10;;;;;;5004373;28;20068;-49
2021/07/24 04:55:54;;;;;;;31.38;15.77;;;14.20;95.30;;;;;;5013979;28;20049;-51
2021/07/24 04:58:24;;;;;;;23.98;14.60;;;14.30;95.20;;;;;;5013145;28;20088;-48
2021/07/24 05:00:50;;;;;;;24.38;15.23;;;14.30;95.20;;;;;;5009410;28;20030;-49
2021/07/24 05:03:16;;;;;;;25.05;14.63;;;14.30;95.10;;;;;;5012081;28;20038;-47
2021/07/24 05:05:42;;;;;;;26.15;15.13;;;14.40;95.30;;;;;;5012249;28;20042;-47
2021/07/24 05:08:09;;;;;;;29.27;15.30;;;14.40;94.90;;;;;;5011980;28;20128;-49
2021/07/24 05:10:36;;;;;;;28.52;15.98;;;14.50;94.80;;;;;;5012839;28;20034;-51
2021/07/24 05:13:02;;;;;;;26.10;15.98;;;14.50;94.80;;;;;;5012424;28;20042;-50
2021/07/24 05:15:33;;;;;;;25.00;14.73;;;14.60;94.70;;;;;;5009977;28;20052;-47
2021/07/24 05:18:00;;;;;;;23.98;14.13;;;14.70;94.60;;;;;;5012861;28;20046;-47
2021/07/24 05:20:26;;;;;;;25.27;15.48;;;14.80;94.30;;;;;;4995211;28;20063;-51
2021/07/24 05:22:52;;;;;;;24.27;14.55;;;14.90;94.30;;;;;;5012232;28;20037;-51
2021/07/24 05:25:18;;;;;;;26.83;16.00;;;15.10;94.20;;;;;;5012066;28;20050;-51
2021/07/24 05:27:43;;;;;;;23.67;14.05;;;15.20;93.90;;;;;;5012123;28;20042;-48
2021/07/24 05:30:10;;;;;;;26.80;16.23;;;15.30;93.50;;;;;;5012084;28;20084;-50
2021/07/24 05:32:35;;;;;;;29.38;16.73;;;15.40;93.40;;;;;;5012313;28;20046;-49
2021/07/24 05:35:01;;;;;;;25.42;15.35;;;15.50;93.70;;;;;;5011708;28;20180;-51
2021/07/24 05:37:27;;;;;;;26.35;15.73;;;15.60;93.40;;;;;;5007384;28;20479;-49
2021/07/24 05:39:53;;;;;;;25.70;14.05;;;15.70;93.00;;;;;;5007910;28;20038;-51
2021/07/24 05:42:19;;;;;;;27.98;14.95;;;15.80;92.70;;;;;;5010882;28;20049;-51
2021/07/24 05:44:45;;;;;;;24.85;14.43;;;15.90;92.30;;;;;;4994115;28;20046;-46
2021/07/24 05:47:11;;;;;;;29.35;15.65;;;16.00;92.30;;;;;;5011762;28;20561;-47
2021/07/24 05:49:37;;;;;;;26.85;15.30;;;16.00;92.40;;;;;;5012172;28;20067;-47
2021/07/24 05:52:09;;;;;;;25.00;14.50;;;16.00;92.30;;;;;;5010728;28;20444;-50
2021/07/24 05:54:39;;;;;;;25.33;14.90;;;16.00;92.30;;;;;;5011423;28;21031;-47
2021/07/24 05:57:05;;;;;;;25.83;14.73;;;16.00;92.30;;;;;;5010995;28;20264;-50
2021/07/24 05:59:33;;;;;;;27.20;15.45;;;16.00;92.40;;;;;;5011332;28;20100;-51
2021/07/24 06:01:58;;;;;;;24.73;14.57;;;16.10;92.10;;;;;;5009147;28;20070;-48
2021/07/24 06:04:25;;;;;;;25.35;14.52;;;16.10;92.00;;;;;;4998970;28;20157;-49
2021/07/24 06:06:51;;;;;;;28.05;14.93;;;16.10;92.30;;;;;;5009638;28;20034;-48
2021/07/24 06:09:17;;;;;;;24.35;14.23;;;16.10;92.20;;;;;;5011649;28;20410;-48
2021/07/24 06:11:43;;;;;;;25.33;15.23;;;16.20;92.20;;;;;;5010985;28;20046;-52
2021/07/24 06:14:09;;;;;;;23.83;13.73;;;16.30;91.70;;;;;;5011868;28;20040;-51
2021/07/24 06:16:39;;;;;;;25.00;12.68;;;16.30;91.60;;;;;;5020019;28;20046;-50
2021/07/24 06:19:07;;;;;;;21.70;13.23;;;16.30;91.70;;;;;;5012293;28;20046;-52
2021/07/24 06:21:33;;;;;;;28.00;14.48;;;16.40;91.40;;;;;;5012046;28;20112;-51
2021/07/24 06:23:58;;;;;;;22.00;13.95;;;16.40;91.80;;;;;;5011061;28;20030;-48
2021/07/24 06:26:24;;;;;;;22.33;13.70;;;16.40;92.10;;;;;;5013203;28;20037;-48
2021/07/24 06:28:50;;;;;;;23.52;13.15;;;16.50;91.60;;;;;;5010158;28;20413;-48
2021/07/24 06:31:15;;;;;;;23.92;13.38;;;16.50;91.40;;;;;;5019708;28;20036;-49
2021/07/24 06:33:41;;;;;;;21.70;12.40;;;16.60;91.50;;;;;;5004700;28;20530;-52
2021/07/24 06:36:06;;;;;;;20.30;13.13;;;16.70;90.90;;;;;;5010689;28;20048;-49
2021/07/24 06:38:32;;;;;;;21.27;12.25;;;16.80;91.00;;;;;;5010218;28;20041;-50
2021/07/24 06:40:58;;;;;;;19.05;12.00;;;16.80;90.90;;;;;;5006194;28;20045;-53
2021/07/24 06:43:24;;;;;;;20.35;12.38;;;16.90;90.50;;;;;;5009042;28;20076;-51
2021/07/24 06:45:50;;;;;;;21.55;12.18;;;16.90;90.50;;;;;;5009226;28;20095;-51
2021/07/24 06:48:16;;;;;;;20.33;12.60;;;16.90;91.10;;;;;;5010305;28;20073;-52
2021/07/24 06:50:42;;;;;;;22.73;12.95;;;17.00;90.40;;;;;;5004464;28;20045;-50
2021/07/24 06:53:08;;;;;;;19.90;12.25;;;17.10;89.80;;;;;;5013276;28;20042;-49
2021/07/24 06:55:34;;;;;;;21.00;12.63;;;17.10;89.80;;;;;;5021939;28;20038;-50
2021/07/24 06:58:03;;;;;;;19.20;12.18;;;17.20;90.10;;;;;;5015403;28;20213;-51
2021/07/24 07:00:30;;;;;;;21.52;12.43;;;17.20;90.10;;;;;;5016282;28;20062;-52
2021/07/24 07:02:58;;;;;;;17.88;10.70;;;17.20;89.90;;;;;;5014614;28;20048;-51
2021/07/24 07:05:24;;;;;;;19.92;12.65;;;17.30;89.50;;;;;;5013944;28;20057;-48
2021/07/24 07:07:51;;;;;;;19.70;12.05;;;17.40;89.70;;;;;;4997441;28;20132;-49
2021/07/24 07:10:16;;;;;;;18.60;11.52;;;17.40;90.10;;;;;;5019486;28;20129;-52
2021/07/24 07:12:42;;;;;;;17.08;11.27;;;17.50;89.80;;;;;;5021691;28;20069;-51
2021/07/24 07:15:08;;;;;;;19.75;12.80;;;17.50;89.10;;;;;;5013947;28;20038;-52
2021/07/24 07:17:35;;;;;;;20.52;11.65;;;17.60;90.10;;;;;;5008260;28;20045;-50
2021/07/24 07:20:08;;;;;;;20.08;13.25;;;17.70;89.70;;;;;;5012145;28;20042;-54
2021/07/24 07:22:34;;;;;;;17.15;11.05;;;17.80;89.60;;;;;;5013499;28;20053;-53
2021/07/24 07:25:00;;;;;;;20.17;12.18;;;17.90;88.80;;;;;;5015588;28;20045;-54
2021/07/24 07:27:26;;;;;;;22.05;11.40;;;17.90;88.90;;;;;;5014458;28;20103;-52
2021/07/24 07:29:52;;;;;;;19.27;11.43;;;18.10;88.90;;;;;;5012728;28;20141;-52
2021/07/24 07:32:17;;;;;;;14.48;10.50;;;18.10;88.70;;;;;;5007356;28;20486;-52
2021/07/24 07:34:43;;;;;;;15.25;11.07;;;18.20;89.30;;;;;;5012928;28;20053;-54
2021/07/24 07:37:09;;;;;;;19.02;11.32;;;18.40;89.30;;;;;;5013661;28;20037;-55
2021/07/24 07:39:35;;;;;;;21.13;11.40;;;18.50;88.50;;;;;;5013577;28;20065;-52
2021/07/24 07:42:01;;;;;;;16.02;10.38;;;18.60;87.50;;;;;;5013573;28;20042;-49
2021/07/24 07:44:28;;;;;;;18.25;10.57;;;18.70;85.40;;;;;;5013541;28;20049;-52
2021/07/24 07:46:54;;;;;;;16.02;9.95;;;18.80;86.00;;;;;;5011943;28;20044;-53
2021/07/24 07:49:20;;;;;;;15.50;10.48;;;18.80;86.30;;;;;;5012136;28;20042;-51
2021/07/24 07:51:45;;;;;;;16.25;11.38;;;18.90;85.90;;;;;;5013541;28;20034;-54
2021/07/24 07:54:11;;;;;;;15.88;10.85;;;19.10;85.40;;;;;;5013549;28;20054;-51
2021/07/24 07:56:37;;;;;;;18.40;11.32;;;19.20;85.00;;;;;;5013658;28;20118;-52
2021/07/24 07:59:04;;;;;;;15.05;10.27;;;19.30;83.70;;;;;;5013022;28;20045;-54
2021/07/24 08:01:29;;;;;;;17.10;10.82;;;19.40;84.00;;;;;;4995477;28;20049;-52
2021/07/24 08:03:55;;;;;;;15.27;10.32;;;19.50;83.80;;;;;;5013339;28;20042;-53
2021/07/24 08:06:21;;;;;;;15.60;10.48;;;19.50;84.60;;;;;;4999005;28;20081;-51
2021/07/24 08:08:47;;;;;;;15.00;10.13;;;19.70;83.20;;;;;;5013848;28;20683;-54
2021/07/24 08:11:14;;;;;;;16.67;10.35;;;19.70;83.80;;;;;;5001329;28;20043;-54
2021/07/24 08:13:40;;;;;;;14.90;10.32;;;19.80;82.30;;;;;;5012472;28;20034;-53
2021/07/24 08:16:13;;;;;;;19.40;10.23;;;19.90;81.80;;;;;;5010856;28;20084;-54
2021/07/24 08:18:39;;;;;;;19.30;10.77;;;20.00;82.30;;;;;;5010671;28;20044;-52
2021/07/24 08:21:05;;;;;;;15.85;10.13;;;20.10;81.10;;;;;;5022578;28;20037;-53
2021/07/24 08:23:30;;;;;;;16.13;10.05;;;20.20;82.10;;;;;;5019421;28;20064;-54
2021/07/24 08:25:56;;;;;;;14.05;9.45;;;20.30;80.10;;;;;;5001198;28;20048;-54
2021/07/24 08:28:28;;;;;;;13.88;9.43;;;20.40;80.20;;;;;;5019399;28;20058;-54
2021/07/24 08:30:54;;;;;;;15.20;9.80;;;20.50;80.70;;;;;;5011620;28;20060;-51
2021/07/24 08:33:20;;;;;;;18.85;9.65;;;20.60;79.30;;;;;;5011563;28;20038;-54
2021/07/24 08:35:45;;;;;;;12.43;9.75;;;20.50;79.10;;;;;;5013025;28;20406;-54
2021/07/24 08:38:11;;;;;;;18.70;10.65;;;20.60;79.40;;;;;;5017656;28;20414;-53
2021/07/24 08:40:37;;;;;;;18.08;9.88;;;20.60;79.70;;;;;;5015245;28;20095;-54
2021/07/24 08:43:07;;;;;;;13.00;9.68;;;20.60;78.80;;;;;;5011787;28;20053;-51
2021/07/24 08:45:33;;;;;;;14.95;9.57;;;20.60;79.80;;;;;;5019490;28;20038;-54
2021/07/24 08:48:00;;;;;;;13.18;9.52;;;20.70;80.40;;;;;;4999248;28;20041;-54
2021/07/24 08:50:26;;;;;;;17.65;9.75;;;20.80;80.30;;;;;;5009417;28;20037;-54
2021/07/24 08:52:58;;;;;;;16.13;9.57;;;20.80;79.00;;;;;;5012559;28;20038;-52
2021/07/24 08:55:24;;;;;;;14.57;9.98;;;20.90;78.40;;;;;;5012266;28;20053;-54
2021/07/24 08:57:52;;;;;;;13.80;9.50;;;20.90;78.30;;;;;;5012480;28;20068;-53
2021/07/24 09:00:19;;;;;;;14.95;9.32;;;20.90;77.30;;;;;;5012393;28;20033;-53
2021/07/24 09:02:51;;;;;;;13.05;9.93;;;20.90;78.20;;;;;;5012376;28;20050;-52
2021/07/24 09:05:17;;;;;;;;;;;20.90;78.90;;;;;;5002497;28;20061;-53
2021/07/24 09:07:48;;;;;;;15.10;9.75;;;21.00;78.90;;;;;;5006546;28;19921;-55
2021/07/24 09:10:16;;;;;;;17.15;10.40;;;21.10;79.20;;;;;;5012443;28;20454;-55
2021/07/24 09:12:46;;;;;;;15.10;9.73;;;21.20;77.50;;;;;;5005802;28;20045;-53
2021/07/24 09:15:15;;;;;;;15.88;10.18;;;21.30;77.20;;;;;;5007651;28;20077;-53
2021/07/24 09:17:41;;;;;;;12.82;9.82;;;21.30;77.10;;;;;;5004330;28;20047;-53
2021/07/24 09:20:08;;;;;;;15.52;9.57;;;21.20;77.60;;;;;;5001457;28;20445;-55
2021/07/24 09:22:36;;;;;;;15.95;9.80;;;21.20;77.50;;;;;;5009664;28;20429;-54
2021/07/24 09:25:18;;;;;;;13.68;9.55;;;21.30;77.40;;;;;;5001631;28;20097;-55
2021/07/24 09:27:55;;;;;;;14.77;10.45;;;21.30;75.40;;;;;;5022555;28;20168;-54
2021/07/24 09:30:23;;;;;;;14.70;9.60;;;21.30;76.20;;;;;;5013303;28;20099;-56
2021/07/24 09:33:04;;;;;;;12.90;9.40;;;21.30;76.70;;;;;;5010947;28;20042;-54
2021/07/24 09:35:44;;;;;;;14.55;9.55;;;21.40;77.10;;;;;;5011718;28;20157;-54
2021/07/24 09:38:12;;;;;;;14.65;9.48;;;21.50;77.60;;;;;;5012079;28;20053;-55
2021/07/24 09:40:43;;;;;;;14.27;9.00;;;21.70;76.40;;;;;;5011042;28;20092;-54
2021/07/24 09:43:39;;;;;;;12.43;8.93;;;21.80;76.80;;;;;;5012287;28;20067;-54
2021/07/24 09:46:11;;;;;;;10.68;8.80;;;21.90;77.90;;;;;;4999369;28;20083;-54
2021/07/24 09:48:37;;;;;;;12.05;9.20;;;22.10;76.50;;;;;;5011545;28;20120;-56
2021/07/24 09:51:03;;;;;;;13.48;9.30;;;22.20;74.60;;;;;;4994311;28;20410;-55
2021/07/24 09:53:36;;;;;;;15.38;9.43;;;22.10;75.60;;;;;;4996851;28;20541;-56
2021/07/24 09:56:03;;;;;;;14.15;9.73;;;22.00;75.70;;;;;;4999344;28;20041;-53
2021/07/24 09:58:28;;;;;;;13.52;10.10;;;22.00;75.60;;;;;;5001284;28;20093;-54
2021/07/24 10:01:05;;;;;;;12.90;8.77;;;22.00;75.60;;;;;;4995648;28;20042;-53
2021/07/24 10:03:32;;;;;;;14.90;9.65;;;22.10;74.20;;;;;;5011670;28;20498;-53
2021/07/24 10:06:00;;;;;;;13.98;9.27;;;22.10;75.70;;;;;;5009938;28;20482;-53
2021/07/24 10:08:29;;;;;;;15.70;8.98;;;22.20;74.80;;;;;;5019260;28;20476;-53
2021/07/24 10:10:54;;;;;;;13.50;9.75;;;22.30;73.20;;;;;;5014243;28;20049;-54
2021/07/24 10:13:21;;;;;;;15.82;8.82;;;22.40;74.50;;;;;;5021678;28;20049;-53
2021/07/24 10:15:47;;;;;;;16.60;9.90;;;22.40;74.10;;;;;;5004134;28;20042;-54
2021/07/24 10:18:14;;;;;;;12.70;9.60;;;22.40;75.00;;;;;;5011011;28;20049;-54
2021/07/24 10:20:48;;;;;;;14.27;9.80;;;22.50;74.70;;;;;;5011789;28;20044;-54
2021/07/24 10:23:17;;;;;;;13.77;8.90;;;22.60;72.80;;;;;;5008091;28;20050;-52
2021/07/24 10:26:02;;;;;;;15.43;10.07;;;22.70;73.30;;;;;;5007310;28;20046;-54
2021/07/24 10:29:04;;;;;;;13.65;9.43;;;22.70;73.30;;;;;;4995767;28;20045;-55
2021/07/24 10:31:51;;;;;;;14.98;9.65;;;22.80;72.40;;;;;;4982096;28;20045;-56
2021/07/24 10:34:24;;;;;;;14.20;9.35;;;22.80;73.00;;;;;;5002599;28;20045;-54
2021/07/24 10:36:50;;;;;;;13.00;8.50;;;22.90;74.40;;;;;;5010467;28;20187;-54
2021/07/24 10:39:16;;;;;;;13.93;9.82;;;23.00;72.90;;;;;;5009594;28;20110;-54
2021/07/24 10:41:43;;;;;;;14.23;9.00;;;23.10;71.80;;;;;;5003807;28;20483;-54
2021/07/24 10:44:33;;;;;;;13.10;9.23;;;23.20;71.60;;;;;;5009692;28;20380;-54
2021/07/24 10:47:01;;;;;;;13.45;9.70;;;23.30;71.80;;;;;;5019732;28;20037;-54
2021/07/24 10:49:32;;;;;;;17.80;8.93;;;23.40;72.30;;;;;;5006112;28;20041;-53
2021/07/24 10:51:59;;;;;;;13.35;8.20;;;23.50;72.10;;;;;;4997334;28;20034;-54
2021/07/24 10:54:26;;;;;;;13.07;8.65;;;23.50;70.30;;;;;;5009291;28;20137;-54
2021/07/24 10:56:52;;;;;;;11.07;8.65;;;23.60;70.10;;;;;;5010239;28;20042;-54
2021/07/24 10:59:30;;;;;;;12.82;9.52;;;23.50;70.50;;;;;;5007101;28;20042;-55
2021/07/24 11:02:00;;;;;;;10.70;7.30;;;23.60;69.50;;;;;;5001636;28;20109;-55
2021/07/24 11:04:35;;;;;;;14.85;10.00;;;23.60;69.40;;;;;;5007086;28;20461;-55
2021/07/24 11:07:13;;;;;;;11.55;9.13;;;23.60;69.00;;;;;;5010257;28;20046;-54
2021/07/24 11:09:43;;;;;;;13.32;9.63;;;23.60;69.70;;;;;;5004922;28;20037;-54
2021/07/24 11:12:14;;;;;;;15.02;9.40;;;23.50;71.20;;;;;;5010107;28;20042;-53
2021/07/24 11:14:42;;;;;;;10.90;8.82;;;23.50;71.70;;;;;;5002597;28;20042;-52
2021/07/24 11:17:08;;;;;;;10.40;8.30;;;23.60;70.50;;;;;;5003281;28;20030;-53
2021/07/24 11:19:59;;;;;;;13.90;9.25;;;23.60;71.50;;;;;;5005640;28;20133;-54
2021/07/24 11:22:29;;;;;;;14.80;9.85;;;23.70;71.10;;;;;;5011489;28;20049;-54
2021/07/24 11:24:54;;;;;;;12.10;9.18;;;23.80;71.00;;;;;;5009831;28;20042;-55
2021/07/24 11:27:26;;;;;;;11.48;8.32;;;23.80;71.10;;;;;;5006991;28;20057;-53
2021/07/24 11:29:52;;;;;;;;;;;23.90;70.00;;;;;;5008603;28;20046;-52
2021/07/24 11:32:26;;;;;;;16.48;9.57;;;23.80;72.20;;;;;;5003077;28;20370;-51
2021/07/24 11:35:07;;;;;;;15.27;9.13;;;23.90;71.70;;;;;;5002338;28;20415;-52
2021/07/24 11:37:34;;;;;;;14.27;9.80;;;23.90;70.30;;;;;;5007941;28;20442;-52
2021/07/24 11:40:01;;;;;;;15.38;8.73;;;23.90;71.40;;;;;;5002993;28;20069;-50
2021/07/24 11:42:27;;;;;;;12.35;9.77;;;23.90;72.80;;;;;;5011655;28;20131;-53
2021/07/24 11:44:52;;;;;;;14.88;8.88;;;24.00;70.50;;;;;;4992132;28;20030;-51
2021/07/24 11:47:18;;;;;;;13.63;9.05;;;24.00;69.80;;;;;;5007872;28;20087;-53
2021/07/24 11:49:44;;;;;;;14.40;8.95;;;24.00;69.60;;;;;;5001616;28;20052;-52
2021/07/24 11:52:10;;;;;;;16.00;9.57;;;24.00;68.10;;;;;;5013788;28;20108;-53
2021/07/24 11:54:37;;;;;;;13.13;8.93;;;24.00;69.00;;;;;;5014880;28;20137;-52
2021/07/24 11:57:05;;;;;;;16.55;8.88;;;24.00;70.50;;;;;;5011368;28;20121;-53
2021/07/24 11:59:34;;;;;;;12.98;8.38;;;24.00;69.10;;;;;;5012189;28;20041;-52
2021/07/24 12:02:01;;;;;;;14.65;9.18;;;24.00;70.80;;;;;;5004122;28;20041;-53
2021/07/24 12:04:27;;;;;;;13.13;8.10;;;24.00;71.40;;;;;;5010970;28;20038;-53
2021/07/24 12:06:59;;;;;;;15.32;9.00;;;24.10;69.80;;;;;;5011861;28;20472;-51
2021/07/24 12:09:26;;;;;;;12.75;9.15;;;24.00;69.80;;;;;;5009445;28;20513;-53
2021/07/24 12:12:00;;;;;;;12.98;9.57;;;24.00;71.00;;;;;;5008868;28;20049;-54
2021/07/24 12:14:28;;;;;;;11.18;8.80;;;24.00;70.90;;;;;;5006582;28;20716;-53
2021/07/24 12:17:08;;;;;;;14.57;9.27;;;24.00;71.50;;;;;;5000862;28;20466;-51
2021/07/24 12:19:44;;;;;;;12.50;8.93;;;24.00;71.80;;;;;;5014975;28;20057;-52
2021/07/24 12:22:15;;;;;;;10.90;9.07;;;23.90;72.50;;;;;;5023858;28;20511;-53
2021/07/24 12:24:42;;;;;;;13.37;8.83;;;24.00;72.10;;;;;;4999534;28;20046;-53
2021/07/24 12:27:18;;;;;;;17.63;9.82;;;24.00;71.00;;;;;;5006048;28;20541;-53
2021/07/24 12:29:49;;;;;;;11.25;8.75;;;24.00;71.10;;;;;;5000852;28;20046;-53
2021/07/24 12:32:15;;;;;;;12.50;9.47;;;24.10;70.30;;;;;;4995597;28;20045;-54
2021/07/24 12:34:42;;;;;;;13.43;9.27;;;24.00;70.80;;;;;;5008558;28;20120;-53
2021/07/24 12:37:08;;;;;;;12.13;8.80;;;24.00;71.50;;;;;;5010175;28;20046;-53